Time;durP1;ratioP1;P1;durP2;ratioP2;P2;SDS_P1;SDS_P2;PMS_P1;PMS_P2;Temp;Humidity;BMP_temperature;BMP_pressure;BME280_temperature;BME280_humidity;BME280_pressure;Samples;Min_cycle;Max_cycle;Signal;HPM_P1;HPM_P2
2021/12/02 00:02:06;;;;;;;11.60;5.65;;;;;;;-1.69;76.84;94403.56;5111508;28;20409;-74
2021/12/02 00:04:33;;;;;;;11.60;6.00;;;;;;;-1.58;77.63;94414.94;5111146;28;20059;-74
2021/12/02 00:06:59;;;;;;;10.65;6.32;;;;;;;-1.81;77.87;94410.81;5112653;28;20073;-73
2021/12/02 00:09:24;;;;;;;10.77;5.45;;;;;;;-1.72;77.93;94412.16;5111307;28;20040;-73
2021/12/02 00:11:50;;;;;;;11.68;7.30;;;;;;;-1.64;78.51;94409.28;5111278;28;20042;-74
2021/12/02 00:14:22;;;;;;;12.32;7.45;;;;;;;-1.63;78.71;94418.56;5111359;28;20042;-74
2021/12/02 00:17:54;;;;;;;15.93;10.25;;;;;;;-1.52;78.64;94424.06;5111211;28;20038;-73
2021/12/02 00:22:27;;;;;;;15.18;8.95;;;;;;;-1.69;78.20;94426.47;5111405;28;20486;-74
2021/12/02 00:24:56;;;;;;;14.38;7.15;;;;;;;-1.71;78.00;94430.78;5093989;28;20071;-74
2021/12/02 00:27:21;;;;;;;11.80;6.70;;;;;;;-1.81;77.46;94435.47;5110929;28;20028;-74
2021/12/02 00:29:47;;;;;;;8.32;5.75;;;;;;;-1.70;77.97;94435.84;5112269;28;20038;-74
2021/12/02 00:32:12;;;;;;;9.40;5.63;;;;;;;-1.69;78.48;94441.75;5093902;28;20028;-73
2021/12/02 00:34:45;;;;;;;11.40;6.00;;;;;;;-1.86;77.93;94433.09;5093795;28;20028;-74
2021/12/02 00:37:11;;;;;;;11.30;5.57;;;;;;;-1.70;78.29;94435.00;5110619;28;20481;-74
2021/12/02 00:39:36;;;;;;;15.48;8.57;;;;;;;-1.65;79.56;94428.00;5093965;28;20068;-74
2021/12/02 00:42:01;;;;;;;13.63;8.10;;;;;;;-1.46;80.01;94435.69;5110773;28;20027;-74
2021/12/02 00:44:28;;;;;;;13.77;8.38;;;;;;;-1.40;80.27;94436.25;5093502;28;20047;-74
2021/12/02 00:46:54;;;;;;;17.33;8.85;;;;;;;-1.28;79.97;94426.44;5093712;28;20110;-74
2021/12/02 00:49:19;;;;;;;12.07;7.03;;;;;;;-1.58;76.37;94430.22;5093661;28;20398;-74
2021/12/02 00:51:48;;;;;;;12.48;6.97;;;;;;;-1.59;77.61;94418.41;5110784;28;20053;-73
2021/12/02 00:54:14;;;;;;;13.73;7.75;;;;;;;-1.56;77.23;94420.00;5094029;28;20036;-73
2021/12/02 00:56:39;;;;;;;13.55;7.35;;;;;;;-1.76;77.52;94402.13;5110553;28;20027;-73
2021/12/02 00:59:05;;;;;;;11.25;6.80;;;;;;;-1.61;76.64;94412.53;5110319;28;20107;-74
2021/12/02 01:01:34;;;;;;;13.43;8.40;;;;;;;-1.58;76.59;94419.22;5093642;28;20047;-75
2021/12/02 01:04:00;;;;;;;12.70;7.75;;;;;;;-1.78;78.00;94409.00;5110404;28;20039;-74
2021/12/02 01:06:26;;;;;;;15.55;7.85;;;;;;;-1.90;77.90;94413.72;5076374;28;20050;-74
2021/12/02 01:08:51;;;;;;;12.90;7.32;;;;;;;-1.86;77.92;94420.34;5093359;28;20114;-74
2021/12/02 01:11:18;;;;;;;10.38;7.05;;;;;;;-1.99;77.99;94424.28;5093213;28;20474;-73
2021/12/02 01:13:44;;;;;;;12.43;6.95;;;;;;;-1.74;78.00;94434.28;5110406;28;20032;-74
2021/12/02 01:16:09;;;;;;;12.15;7.85;;;;;;;-2.12;76.95;94439.19;5111822;28;20544;-74
2021/12/02 01:18:35;;;;;;;11.63;7.00;;;;;;;-1.99;77.52;94448.91;5093289;28;20028;-74
2021/12/02 01:21:01;;;;;;;14.95;7.30;;;;;;;-1.98;78.76;94446.28;5093186;28;20027;-73
2021/12/02 01:23:27;;;;;;;13.20;8.07;;;;;;;-1.99;79.94;94424.28;5093196;28;20032;-74
2021/12/02 01:25:55;;;;;;;15.20;8.23;;;;;;;-1.84;80.12;94433.88;5093252;28;20026;-73
2021/12/02 01:28:24;;;;;;;13.10;7.78;;;;;;;-1.74;79.89;94443.66;5076484;28;20042;-74
2021/12/02 01:30:50;;;;;;;14.30;8.43;;;;;;;-1.85;79.07;94437.28;5093408;28;20039;-74
2021/12/02 01:33:16;;;;;;;14.30;7.95;;;;;;;-2.03;78.07;94443.13;5113294;28;20498;-74
2021/12/02 01:35:41;;;;;;;15.30;8.63;;;;;;;-2.05;78.42;94434.72;5114540;28;20130;-74
2021/12/02 01:38:07;;;;;;;14.13;8.50;;;;;;;-1.96;78.37;94446.25;5097313;28;20447;-74
2021/12/02 01:40:32;;;;;;;16.85;9.85;;;;;;;-1.93;79.92;94439.31;5114386;28;20065;-74
2021/12/02 01:42:58;;;;;;;13.05;8.18;;;;;;;-1.98;79.09;94436.09;5097044;28;20046;-73
2021/12/02 01:45:27;;;;;;;18.02;8.52;;;;;;;-2.18;78.31;94418.25;5097040;28;20054;-74
2021/12/02 01:47:54;;;;;;;10.93;7.35;;;;;;;-2.03;78.20;94438.84;5080593;28;20074;-74
2021/12/02 01:50:22;;;;;;;14.68;8.40;;;;;;;-2.02;79.60;94440.50;5097263;28;20085;-73
2021/12/02 01:53:00;;;;;;;16.30;9.43;;;;;;;-1.96;79.46;94429.25;5097009;28;20092;-74
2021/12/02 01:55:26;;;;;;;14.77;8.35;;;;;;;-1.78;78.83;94429.38;5097398;28;20028;-74
2021/12/02 01:58:03;;;;;;;12.13;7.60;;;;;;;-1.73;79.24;94419.84;5113711;28;20390;-75
2021/12/02 02:00:41;;;;;;;15.40;8.27;;;;;;;-1.65;79.73;94415.25;5097775;28;20069;-73
2021/12/02 02:03:06;;;;;;;13.27;7.88;;;;;;;-1.54;79.83;94417.34;5098299;28;20042;-74
2021/12/02 02:05:32;;;;;;;14.07;7.47;;;;;;;-1.47;79.88;94409.41;5113558;28;20055;-74
2021/12/02 02:08:00;;;;;;;11.75;7.45;;;;;;;-1.36;79.69;94401.31;5113599;28;20077;-74
2021/12/02 02:10:26;;;;;;;13.98;7.55;;;;;;;-1.27;79.85;94402.63;5096953;28;20042;-73
2021/12/02 02:12:54;;;;;;;17.35;9.07;;;;;;;-1.25;79.25;94390.66;5096747;28;20053;-74
2021/12/02 02:15:19;;;;;;;12.82;7.30;;;;;;;-1.15;79.30;94387.59;5096338;28;20032;-74
2021/12/02 02:17:55;;;;;;;12.32;7.57;;;;;;;-1.10;79.07;94400.16;5113524;28;20031;-73
2021/12/02 02:20:43;;;;;;;10.90;7.28;;;;;;;-1.17;78.42;94388.56;5115044;28;20523;-73
2021/12/02 02:23:11;;;;;;;14.27;7.82;;;;;;;-1.18;77.70;94381.81;5114385;28;20031;-74
2021/12/02 02:25:37;;;;;;;15.27;8.30;;;;;;;-1.03;78.27;94396.47;5113521;28;20043;-74
2021/12/02 02:28:03;;;;;;;12.77;7.60;;;;;;;-1.05;78.67;94372.75;5096187;28;20096;-75
2021/12/02 02:30:28;;;;;;;11.73;7.38;;;;;;;-0.97;78.37;94401.28;5114283;28;20148;-74
2021/12/02 02:32:54;;;;;;;18.10;7.30;;;;;;;-1.06;78.40;94393.19;5114396;28;20485;-74
2021/12/02 02:35:19;;;;;;;13.02;7.65;;;;;;;-1.24;78.18;94394.84;5114739;28;20035;-74
2021/12/02 02:37:45;;;;;;;11.77;7.18;;;;;;;-1.13;78.62;94395.19;5114284;28;20482;-74
2021/12/02 02:40:13;;;;;;;13.82;7.25;;;;;;;-1.08;78.34;94395.00;5113062;28;20024;-73
2021/12/02 02:42:38;;;;;;;10.70;6.47;;;;;;;-1.04;78.68;94399.88;5096068;28;20031;-73
2021/12/02 02:45:04;;;;;;;13.13;7.78;;;;;;;-0.99;77.85;94395.41;5111641;28;20031;-74
2021/12/02 02:47:30;;;;;;;13.30;6.75;;;;;;;-1.05;78.09;94403.34;5112918;28;20084;-74
2021/12/02 02:49:55;;;;;;;11.40;7.15;;;;;;;-1.10;76.33;94395.06;5114277;28;20039;-73
2021/12/02 02:52:21;;;;;;;14.63;8.77;;;;;;;-1.16;77.09;94390.22;5095899;28;20333;-76
2021/12/02 02:54:47;;;;;;;11.98;8.32;;;;;;;-1.15;77.21;94385.06;5095873;28;20036;-74
2021/12/02 02:57:14;;;;;;;10.25;6.35;;;;;;;-1.17;76.44;94391.09;5095607;28;20100;-74
2021/12/02 03:00:02;;;;;;;12.05;6.88;;;;;;;-1.15;76.47;94386.78;5112660;28;20512;-73
2021/12/02 03:07:54;;;;;;;30.60;13.88;;;;;;;-1.64;77.36;94383.81;5112811;28;20054;-73
2021/12/02 03:11:01;;;;;;;27.65;13.27;;;;;;;-1.60;76.81;94390.41;5096437;28;20032;-74
2021/12/02 03:13:17;;;;;;;23.05;13.45;;;;;;;-1.99;78.15;94386.09;5095925;28;20044;-74
2021/12/02 03:18:27;;;;;;;14.10;8.60;;;;;;;-1.97;78.90;94394.50;5112783;28;20081;-73
2021/12/02 03:20:52;;;;;;;15.15;10.35;;;;;;;-1.92;79.33;94369.69;5113915;28;20422;-74
2021/12/02 03:23:18;;;;;;;12.10;8.15;;;;;;;-1.89;78.35;94374.66;5095090;28;20020;-74
2021/12/02 03:25:43;;;;;;;11.82;7.60;;;;;;;-1.87;78.75;94367.75;5112541;28;20035;-74
2021/12/02 03:28:09;;;;;;;14.98;9.57;;;;;;;-1.73;76.96;94376.53;5095673;28;20454;-73
2021/12/02 03:30:34;;;;;;;13.05;8.93;;;;;;;-1.90;75.57;94372.97;5078284;28;20023;-73
2021/12/02 03:33:00;;;;;;;14.13;8.93;;;;;;;-2.06;76.98;94374.53;5113242;28;20023;-73
2021/12/02 03:35:25;;;;;;;12.30;7.75;;;;;;;-2.40;76.23;94362.31;5095113;28;20032;-73
2021/12/02 03:37:51;;;;;;;14.73;8.98;;;;;;;-2.51;79.26;94381.38;5094918;28;20023;-73
2021/12/02 03:40:16;;;;;;;14.00;8.57;;;;;;;-2.40;78.37;94393.66;5113437;28;20063;-73
2021/12/02 03:42:49;;;;;;;16.73;11.23;;;;;;;-2.47;79.71;94364.28;5094740;28;20023;-73
2021/12/02 03:45:15;;;;;;;13.30;9.40;;;;;;;-2.40;79.71;94375.84;5094808;28;20069;-73
2021/12/02 03:47:40;;;;;;;16.55;9.57;;;;;;;-2.29;79.53;94378.78;5111720;28;20027;-73
2021/12/02 03:50:06;;;;;;;15.15;9.27;;;;;;;-2.22;79.92;94373.47;5094709;28;20039;-73
2021/12/02 03:52:32;;;;;;;13.90;7.97;;;;;;;-2.27;80.45;94358.38;5111643;28;20035;-74
2021/12/02 03:54:57;;;;;;;17.88;9.95;;;;;;;-1.96;81.24;94373.22;5111175;28;20509;-73
2021/12/02 03:57:22;;;;;;;16.35;9.02;;;;;;;-1.87;81.08;94365.22;5111394;28;20032;-73
2021/12/02 03:59:48;;;;;;;17.90;9.15;;;;;;;-1.76;80.78;94369.03;5112529;28;20032;-73
2021/12/02 04:02:14;;;;;;;17.17;8.75;;;;;;;-1.67;79.93;94363.53;5077530;28;20023;-73
2021/12/02 04:04:39;;;;;;;12.93;8.82;;;;;;;-1.77;79.49;94359.75;5111155;28;20055;-73
2021/12/02 04:07:05;;;;;;;15.18;8.57;;;;;;;-1.87;79.13;94347.38;5077424;28;20020;-73
2021/12/02 04:09:37;;;;;;;13.25;8.43;;;;;;;-1.57;79.84;94339.34;5094363;28;20032;-73
2021/12/02 04:12:32;;;;;;;14.07;7.47;;;;;;;-1.56;79.68;94325.72;5095199;28;20092;-74
2021/12/02 04:17:18;;;;;;;11.48;7.55;;;;;;;-1.56;78.82;94315.53;5111178;28;20401;-73
2021/12/02 04:19:43;;;;;;;11.18;6.95;;;;;;;-1.48;79.09;94326.19;5094307;28;20031;-73
2021/12/02 04:22:09;;;;;;;12.05;6.97;;;;;;;-1.43;77.83;94333.66;5111110;28;20081;-74
2021/12/02 04:24:34;;;;;;;27.25;13.38;;;;;;;-1.49;76.85;94347.47;5110875;28;20032;-73
2021/12/02 04:27:00;;;;;;;30.92;15.88;;;;;;;-1.86;77.52;94333.78;5093996;28;20028;-73
2021/12/02 04:29:25;;;;;;;26.95;15.35;;;;;;;-1.88;78.51;94350.81;5076925;28;20042;-74
2021/12/02 04:31:51;;;;;;;27.67;16.45;;;;;;;-1.96;77.82;94342.69;5110822;28;20106;-73
2021/12/02 04:34:16;;;;;;;39.63;20.63;;;;;;;-1.95;76.82;94363.88;5110871;28;20046;-73
2021/12/02 04:36:42;;;;;;;25.60;15.65;;;;;;;-2.03;77.46;94349.75;5093776;28;20039;-73
2021/12/02 04:39:07;;;;;;;20.88;13.00;;;;;;;-2.09;78.36;94334.75;5093620;28;20101;-73
2021/12/02 04:41:33;;;;;;;20.98;12.80;;;;;;;-2.00;78.50;94343.72;5093817;28;20032;-73
2021/12/02 04:43:58;;;;;;;21.20;12.27;;;;;;;-1.91;78.25;94352.69;5093494;28;20042;-73
2021/12/02 04:46:24;;;;;;;29.83;18.00;;;;;;;-1.88;77.68;94350.81;5110520;28;20028;-73
2021/12/02 04:48:49;;;;;;;29.42;18.33;;;;;;;-1.95;78.03;94344.34;5110522;28;20538;-73
2021/12/02 04:51:15;;;;;;;22.52;14.15;;;;;;;-1.94;77.76;94346.00;5111620;28;20085;-73
2021/12/02 04:53:40;;;;;;;20.75;12.45;;;;;;;-1.94;77.27;94348.53;5093505;28;20035;-73
2021/12/02 04:56:06;;;;;;;18.15;10.65;;;;;;;-2.22;77.51;94345.50;5110548;28;20037;-73
2021/12/02 04:58:31;;;;;;;20.83;11.77;;;;;;;-2.51;78.58;94330.50;5110350;28;20508;-73
2021/12/02 05:00:58;;;;;;;29.77;15.07;;;;;;;-2.34;79.58;94327.28;5110270;28;20038;-73
2021/12/02 05:03:23;;;;;;;24.08;11.70;;;;;;;-2.23;79.32;94343.81;5110374;28;20092;-74
2021/12/02 05:05:49;;;;;;;28.38;18.50;;;;;;;-2.40;78.99;94324.13;5111470;28;20493;-73
2021/12/02 05:08:14;;;;;;;32.13;17.80;;;;;;;-2.32;79.92;94329.75;5109686;28;20077;-73
2021/12/02 05:10:40;;;;;;;23.17;12.00;;;;;;;-2.22;79.18;94337.84;5076495;28;20035;-73
2021/12/02 05:13:05;;;;;;;21.50;14.10;;;;;;;-2.37;78.36;94326.56;5076325;28;20034;-73
2021/12/02 05:15:31;;;;;;;16.48;12.15;;;;;;;-2.32;79.04;94322.13;5093406;28;20409;-73
2021/12/02 05:17:56;;;;;;;14.68;9.88;;;;;;;-2.22;79.48;94322.59;5110197;28;20023;-73
2021/12/02 05:20:21;;;;;;;16.52;9.80;;;;;;;-2.18;79.76;94324.09;5093292;28;20059;-74
2021/12/02 05:22:47;;;;;;;18.38;12.27;;;;;;;-2.22;79.72;94325.13;5093361;28;20470;-73
2021/12/02 05:25:12;;;;;;;10.70;7.40;;;;;;;-2.28;78.89;94316.84;5111498;28;20180;-73
2021/12/02 05:27:38;;;;;;;12.32;6.50;;;;;;;-2.28;79.34;94309.22;5093514;28;20540;-73
2021/12/02 05:30:04;;;;;;;8.00;5.55;;;;;;;-2.28;78.76;94311.75;5093237;28;20043;-73
2021/12/02 05:32:30;;;;;;;9.43;5.72;;;;;;;-2.33;78.72;94316.19;5093041;28;20027;-73
2021/12/02 05:34:57;;;;;;;11.38;5.90;;;;;;;-2.43;78.96;94324.28;5093146;28;20052;-73
2021/12/02 05:37:22;;;;;;;11.55;6.40;;;;;;;-2.31;79.40;94314.44;5093124;28;20027;-73
2021/12/02 05:39:47;;;;;;;16.27;6.85;;;;;;;-2.27;79.19;94313.41;5111377;28;20470;-73
2021/12/02 05:42:13;;;;;;;14.38;6.03;;;;;;;-2.27;77.58;94308.31;5109949;28;20092;-73
2021/12/02 05:44:40;;;;;;;10.32;5.80;;;;;;;-2.26;78.49;94304.91;5092944;28;20465;-72
2021/12/02 05:47:05;;;;;;;7.95;5.53;;;;;;;-2.17;79.04;94307.94;5093020;28;20424;-74
2021/12/02 05:49:31;;;;;;;9.07;5.88;;;;;;;-2.14;79.27;94312.91;5110078;28;20036;-73
2021/12/02 05:51:56;;;;;;;17.50;9.77;;;;;;;-2.19;80.26;94302.09;5111158;28;20316;-73
2021/12/02 05:54:22;;;;;;;9.63;5.68;;;;;;;-2.11;79.69;94298.34;5075908;28;20035;-73
2021/12/02 05:56:47;;;;;;;8.15;5.05;;;;;;;-2.02;79.81;94312.41;5075944;28;20039;-73
2021/12/02 05:59:13;;;;;;;12.85;6.35;;;;;;;-2.04;80.00;94315.00;5092886;28;20028;-73
2021/12/02 06:01:42;;;;;;;7.88;5.68;;;;;;;-2.29;80.59;94309.25;5092797;28;20019;-73
2021/12/02 06:04:08;;;;;;;8.02;5.13;;;;;;;-2.09;79.85;94326.25;5109745;28;20110;-73
2021/12/02 06:06:34;;;;;;;15.90;9.07;;;;;;;-2.05;79.83;94312.53;5109719;28;20472;-73
2021/12/02 06:08:59;;;;;;;12.60;7.97;;;;;;;-2.01;79.54;94314.03;5092652;28;20031;-73
2021/12/02 06:11:25;;;;;;;12.35;7.55;;;;;;;-1.94;80.01;94324.81;5109730;28;20027;-73
2021/12/02 06:13:50;;;;;;;14.98;9.50;;;;;;;-1.88;79.86;94320.28;5092676;28;20031;-73
2021/12/02 06:16:15;;;;;;;14.75;8.90;;;;;;;-1.83;79.94;94312.44;5110671;28;20023;-73
2021/12/02 06:18:41;;;;;;;12.32;7.07;;;;;;;-1.78;80.64;94320.72;5112850;28;20031;-73
2021/12/02 06:21:06;;;;;;;17.23;11.07;;;;;;;-1.82;79.32;94309.81;5096564;28;20031;-73
2021/12/02 06:23:32;;;;;;;18.45;11.35;;;;;;;-1.73;79.23;94323.88;5114612;28;20030;-73
2021/12/02 06:25:57;;;;;;;18.98;10.85;;;;;;;-1.88;78.97;94307.53;5113169;28;20027;-73
2021/12/02 06:28:23;;;;;;;20.33;12.60;;;;;;;-2.07;78.00;94314.31;5096313;28;20028;-73
2021/12/02 06:30:48;;;;;;;20.20;11.60;;;;;;;-1.90;77.93;94352.59;5113556;28;20107;-73
2021/12/02 06:33:14;;;;;;;22.08;13.45;;;;;;;-1.96;77.84;94346.94;5096222;28;20028;-73
2021/12/02 06:35:40;;;;;;;33.13;18.67;;;;;;;-1.87;77.73;94331.28;5096437;28;20067;-73
2021/12/02 06:38:06;;;;;;;27.50;16.08;;;;;;;-2.02;78.30;94335.31;5096280;28;20076;-74
2021/12/02 06:40:33;;;;;;;73.60;42.90;;;;;;;-2.01;78.64;94339.50;5096195;28;20028;-73
2021/12/02 06:42:59;;;;;;;74.82;36.95;;;;;;;-1.89;77.99;94328.81;5096392;28;20034;-73
2021/12/02 06:45:24;;;;;;;178.05;79.68;;;;;;;-1.97;77.62;94338.50;5113133;28;20035;-73
2021/12/02 06:47:51;;;;;;;177.88;83.38;;;;;;;-1.97;77.95;94358.03;5079055;28;20020;-73
2021/12/02 06:50:19;;;;;;;138.85;72.55;;;;;;;-1.87;77.71;94354.19;5113091;28;20028;-73
2021/12/02 06:52:45;;;;;;;125.63;67.57;;;;;;;-1.77;77.50;94360.56;5096073;28;20580;-73
2021/12/02 06:55:11;;;;;;;74.18;43.28;;;;;;;-1.86;77.04;94349.06;5095901;28;20118;-73
2021/12/02 06:57:37;;;;;;;88.03;52.67;;;;;;;-1.89;76.90;94333.91;5097267;27;20412;-74
2021/12/02 07:00:07;;;;;;;81.18;50.75;;;;;;;-1.78;77.26;94330.06;5132433;27;20492;-74
2021/12/02 07:02:33;;;;;;;73.63;45.83;;;;;;;-1.85;76.98;94325.22;5096911;27;20405;-73
2021/12/02 07:04:58;;;;;;;105.05;54.95;;;;;;;-1.74;76.73;94326.50;5132792;27;20059;-74
2021/12/02 07:07:26;;;;;;;76.47;43.10;;;;;;;-1.65;76.57;94321.00;5133260;27;20027;-73
2021/12/02 07:09:51;;;;;;;72.07;42.25;;;;;;;-1.56;75.94;94325.72;5116432;27;20110;-73
2021/12/02 07:12:19;;;;;;;67.97;42.00;;;;;;;-1.50;75.72;94338.19;5133117;27;20056;-73
2021/12/02 07:14:47;;;;;;;72.20;43.72;;;;;;;-1.61;75.12;94332.72;5116308;27;20031;-73
2021/12/02 07:17:13;;;;;;;68.43;42.45;;;;;;;-1.58;76.91;94343.63;5134117;27;20168;-73
2021/12/02 07:19:40;;;;;;;54.42;34.25;;;;;;;-1.32;76.38;94353.56;5116023;27;20088;-74
2021/12/02 07:22:05;;;;;;;57.15;33.20;;;;;;;-1.30;74.51;94339.03;5132820;27;20023;-74
2021/12/02 07:24:31;;;;;;;52.97;31.90;;;;;;;-1.22;74.84;94348.00;5132718;27;20031;-74
2021/12/02 07:26:57;;;;;;;46.92;30.02;;;;;;;-1.23;75.23;94337.84;5132675;27;20030;-74
2021/12/02 07:29:22;;;;;;;38.55;25.92;;;;;;;-0.93;74.34;94335.66;5115245;28;20031;-74
2021/12/02 07:31:48;;;;;;;37.42;24.77;;;;;;;-1.02;73.42;94321.59;5115382;27;20092;-73
2021/12/02 07:34:13;;;;;;;72.55;42.10;;;;;;;-0.70;72.23;94324.38;5115342;27;20023;-73
2021/12/02 07:36:39;;;;;;;30.02;19.70;;;;;;;-0.35;71.71;94334.66;5098664;27;20031;-73
2021/12/02 07:39:07;;;;;;;39.78;25.92;;;;;;;0.71;69.57;94322.53;5133736;27;20028;-73
2021/12/02 07:41:32;;;;;;;53.55;35.25;;;;;;;3.64;59.75;94331.25;5098371;27;20035;-74
2021/12/02 07:43:58;;;;;;;40.58;26.25;;;;;;;3.21;59.44;94308.28;5130172;27;20163;-73
2021/12/02 07:46:23;;;;;;;39.70;26.73;;;;;;;3.52;58.68;94327.72;5121026;27;20072;-73
2021/12/02 07:48:49;;;;;;;40.88;28.45;;;;;;;2.56;61.50;94342.13;5098178;27;20043;-73
2021/12/02 07:51:16;;;;;;;38.47;24.75;;;;;;;1.29;65.70;94328.84;5116158;27;20467;-74
2021/12/02 07:53:43;;;;;;;36.30;25.27;;;;;;;0.63;69.48;94322.09;5094982;28;20038;-74
2021/12/02 07:56:10;;;;;;;47.30;29.92;;;;;;;0.73;69.91;94330.94;5094701;28;20114;-76
2021/12/02 07:58:36;;;;;;;21.25;14.77;;;;;;;0.46;71.65;94325.53;5094611;28;20024;-74
2021/12/02 08:01:01;;;;;;;28.80;19.42;;;;;;;0.41;72.41;94318.06;5094239;28;20050;-74
2021/12/02 08:03:27;;;;;;;24.58;14.60;;;;;;;0.53;72.44;94326.03;5127973;27;20484;-75
2021/12/02 08:05:52;;;;;;;22.15;14.68;;;;;;;0.69;71.93;94324.31;5131734;27;20051;-71
2021/12/02 08:08:18;;;;;;;22.95;16.75;;;;;;;0.69;72.65;94316.66;5133057;27;20023;-75
2021/12/02 08:10:44;;;;;;;21.95;13.55;;;;;;;0.56;73.73;94315.66;5114576;27;20515;-73
2021/12/02 08:13:09;;;;;;;19.42;12.32;;;;;;;0.65;73.74;94320.28;5114977;27;20023;-72
2021/12/02 08:15:35;;;;;;;15.45;10.15;;;;;;;0.89;73.70;94329.25;5114729;27;20477;-71
2021/12/02 08:18:00;;;;;;;20.33;12.60;;;;;;;0.57;75.20;94327.53;5131121;27;20034;-71
2021/12/02 08:20:26;;;;;;;18.98;11.85;;;;;;;0.77;75.30;94329.88;5114386;27;20039;-71
2021/12/02 08:22:52;;;;;;;9.85;7.15;;;;;;;0.97;75.08;94321.16;5131544;27;20015;-71
2021/12/02 08:25:19;;;;;;;8.57;6.32;;;;;;;1.03;75.05;94325.09;5131828;27;20033;-71
2021/12/02 08:27:45;;;;;;;11.88;6.88;;;;;;;1.16;74.69;94333.78;5114528;27;20027;-71
2021/12/02 08:30:11;;;;;;;10.27;7.53;;;;;;;0.97;76.10;94312.66;5114351;27;20096;-71
2021/12/02 08:32:40;;;;;;;12.85;6.70;;;;;;;1.23;74.46;94324.88;5114221;27;20062;-70
2021/12/02 08:35:06;;;;;;;15.77;10.18;;;;;;;1.30;74.79;94312.56;5114618;27;20035;-70
2021/12/02 08:37:35;;;;;;;14.90;8.82;;;;;;;1.55;73.39;94337.66;5114136;27;20503;-70
2021/12/02 08:40:01;;;;;;;11.07;7.60;;;;;;;1.74;73.87;94334.88;5115537;27;20028;-70
2021/12/02 08:42:27;;;;;;;10.70;7.45;;;;;;;1.69;74.29;94313.84;5093718;28;20030;-71
2021/12/02 08:44:53;;;;;;;14.02;8.38;;;;;;;1.94;73.70;94329.47;5093802;28;20412;-72
2021/12/02 08:47:22;;;;;;;12.13;9.10;;;;;;;1.68;74.45;94301.94;5093673;28;20069;-73
2021/12/02 08:49:48;;;;;;;18.70;11.95;;;;;;;1.85;73.75;94324.06;5077363;28;20123;-72
2021/12/02 08:52:13;;;;;;;15.68;11.32;;;;;;;1.99;72.75;94335.16;5110511;28;20050;-71
2021/12/02 08:54:38;;;;;;;18.52;12.75;;;;;;;1.74;73.88;94311.84;5130075;27;20050;-73
2021/12/02 08:57:04;;;;;;;21.88;14.45;;;;;;;2.07;73.03;94324.47;5130958;27;20507;-72
2021/12/02 08:59:30;;;;;;;13.70;9.38;;;;;;;2.22;72.50;94297.13;5113779;27;20436;-75
2021/12/02 09:01:56;;;;;;;17.10;12.00;;;;;;;2.33;72.26;94292.19;5132024;27;20027;-73
2021/12/02 09:04:21;;;;;;;15.80;10.55;;;;;;;2.40;72.02;94285.00;5130567;27;20552;-73
2021/12/02 09:06:46;;;;;;;32.38;21.38;;;;;;;2.47;68.47;94281.94;5130863;27;20045;-73
2021/12/02 09:09:12;;;;;;;20.80;14.15;;;;;;;2.70;70.85;94307.94;5132069;27;20100;-73
2021/12/02 09:11:37;;;;;;;20.95;15.30;;;;;;;2.31;72.21;94265.81;5130804;27;20038;-73
2021/12/02 09:14:05;;;;;;;26.17;18.55;;;;;;;2.49;71.28;94281.88;5113498;27;20035;-73
2021/12/02 09:16:31;;;;;;;23.17;15.98;;;;;;;2.69;71.66;94278.91;5114203;27;20080;-73
2021/12/02 09:18:57;;;;;;;24.05;16.70;;;;;;;2.88;71.07;94280.38;5113676;27;20038;-73
2021/12/02 09:21:23;;;;;;;24.58;17.45;;;;;;;2.76;70.68;94237.50;5130561;27;20035;-73
2021/12/02 09:23:49;;;;;;;24.55;18.15;;;;;;;3.14;70.47;94271.06;5130553;28;20043;-74
2021/12/02 09:26:14;;;;;;;24.13;17.67;;;;;;;3.16;70.32;94258.97;5113447;28;20019;-73
2021/12/02 09:28:40;;;;;;;34.70;18.23;;;;;;;3.22;69.76;94253.44;5113443;28;20027;-73
2021/12/02 09:31:05;;;;;;;23.77;16.15;;;;;;;3.30;70.61;94261.47;5113395;28;20074;-73
2021/12/02 09:33:30;;;;;;;23.80;16.50;;;;;;;3.32;70.08;94258.81;5130443;28;20027;-74
2021/12/02 09:35:56;;;;;;;27.65;18.20;;;;;;;3.36;69.31;94253.38;5113292;28;20027;-73
2021/12/02 09:38:21;;;;;;;24.55;17.27;;;;;;;3.55;68.87;94260.75;5113458;28;20016;-73
2021/12/02 09:40:47;;;;;;;24.48;16.27;;;;;;;3.64;68.71;94258.50;5132068;27;20545;-73
2021/12/02 09:43:14;;;;;;;23.00;14.75;;;;;;;3.70;65.37;94243.50;5131648;28;20032;-73
2021/12/02 09:45:40;;;;;;;24.20;15.32;;;;;;;3.77;68.32;94247.34;5113668;28;20084;-73
2021/12/02 09:48:07;;;;;;;23.85;15.27;;;;;;;3.84;67.42;94242.63;5130402;28;20023;-74
2021/12/02 09:50:37;;;;;;;26.35;15.75;;;;;;;3.92;65.55;94239.53;5130550;28;20054;-74
2021/12/02 09:53:24;;;;;;;36.50;19.90;;;;;;;3.99;66.44;94230.53;5131191;27;20019;-74
2021/12/02 09:55:57;;;;;;;29.42;16.58;;;;;;;3.97;67.91;94233.19;5120496;27;20072;-74
2021/12/02 09:58:26;;;;;;;19.30;12.80;;;;;;;4.04;67.94;94236.19;5134553;27;20027;-74
2021/12/02 10:00:57;;;;;;;20.77;12.52;;;;;;;4.18;66.41;94238.66;5135980;27;20035;-74
2021/12/02 10:03:31;;;;;;;18.35;11.18;;;;;;;4.20;63.74;94231.63;5117912;27;20417;-74
2021/12/02 10:06:08;;;;;;;14.77;8.40;;;;;;;4.33;64.01;94223.94;5117875;27;20265;-74
2021/12/02 10:08:42;;;;;;;13.45;7.70;;;;;;;4.43;63.30;94212.09;5135444;27;20023;-74
2021/12/02 10:11:13;;;;;;;10.60;6.18;;;;;;;4.56;60.26;94206.09;5118005;27;20114;-74
2021/12/02 10:14:00;;;;;;;12.40;6.68;;;;;;;4.62;63.12;94205.69;5135327;27;20023;-74
2021/12/02 10:16:31;;;;;;;11.55;7.30;;;;;;;4.66;65.18;94209.69;5134199;27;20042;-74
2021/12/02 10:19:07;;;;;;;10.85;4.90;;;;;;;4.68;57.56;94194.97;5117819;27;20027;-74
2021/12/02 10:21:40;;;;;;;6.90;4.53;;;;;;;4.64;64.89;94188.41;5135176;27;20042;-74
2021/12/02 10:24:14;;;;;;;8.38;4.85;;;;;;;4.62;65.06;94190.25;5133810;27;20122;-73
2021/12/02 10:27:02;;;;;;;12.73;6.70;;;;;;;4.69;62.41;94197.44;5116858;27;20073;-74
2021/12/02 10:29:32;;;;;;;13.65;6.20;;;;;;;4.84;61.66;94197.28;5116508;27;20122;-75
2021/12/02 10:32:21;;;;;;;15.18;8.52;;;;;;;4.89;56.87;94180.59;5100078;27;20080;-74
2021/12/02 10:35:01;;;;;;;10.65;6.70;;;;;;;5.18;57.75;94182.84;5117177;27;20055;-73
2021/12/02 10:37:28;;;;;;;9.88;5.50;;;;;;;5.11;61.32;94171.34;5116763;27;20042;-74
2021/12/02 10:39:58;;;;;;;12.15;7.43;;;;;;;5.23;58.28;94170.47;5133535;27;20132;-73
2021/12/02 10:42:24;;;;;;;16.65;8.85;;;;;;;5.20;58.81;94162.97;5134796;27;20027;-73
2021/12/02 10:44:49;;;;;;;14.52;7.40;;;;;;;5.36;56.84;94168.66;5116387;27;20056;-73
2021/12/02 10:47:15;;;;;;;18.23;9.25;;;;;;;5.47;56.45;94156.75;5133429;27;20023;-73
2021/12/02 10:49:43;;;;;;;33.30;16.75;;;;;;;5.62;55.22;94155.63;5133438;27;20028;-73
2021/12/02 10:52:16;;;;;;;30.83;16.52;;;;;;;5.57;56.46;94132.78;5133288;27;20024;-73
2021/12/02 10:54:47;;;;;;;29.70;16.25;;;;;;;5.56;58.02;94135.47;5116516;27;20122;-73
2021/12/02 10:57:18;;;;;;;24.27;13.15;;;;;;;5.61;57.91;94128.22;5133306;27;20035;-73
2021/12/02 10:59:45;;;;;;;22.85;14.00;;;;;;;5.53;59.91;94127.97;5116426;27;20484;-73
2021/12/02 11:02:30;;;;;;;18.63;12.10;;;;;;;5.54;60.70;94137.31;5133192;27;20468;-73
2021/12/02 11:05:01;;;;;;;16.55;9.40;;;;;;;5.61;56.37;94125.63;5132866;27;20194;-73
2021/12/02 11:07:32;;;;;;;15.52;9.57;;;;;;;5.63;56.51;94122.94;5116264;27;20031;-73
2021/12/02 11:10:03;;;;;;;15.80;9.03;;;;;;;5.67;58.77;94132.09;5116157;27;20039;-73
2021/12/02 11:12:30;;;;;;;16.63;9.93;;;;;;;5.67;61.11;94130.34;5098999;27;20462;-73
2021/12/02 11:15:14;;;;;;;12.13;8.15;;;;;;;5.74;57.24;94125.53;5132963;27;20063;-73
2021/12/02 11:17:48;;;;;;;8.55;5.63;;;;;;;5.86;53.96;94121.25;5134171;27;20027;-73
2021/12/02 11:20:21;;;;;;;12.13;7.45;;;;;;;5.85;56.08;94119.56;5134333;27;20447;-73
2021/12/02 11:22:47;;;;;;;15.68;11.35;;;;;;;5.75;60.33;94127.19;5115627;27;20026;-73
2021/12/02 11:25:12;;;;;;;17.15;10.82;;;;;;;5.78;59.25;94125.19;5115674;27;20390;-73
2021/12/02 11:27:42;;;;;;;13.70;7.65;;;;;;;5.90;56.60;94122.63;5132657;27;20088;-74
2021/12/02 11:30:19;;;;;;;9.73;5.07;;;;;;;5.99;54.24;94111.66;5132627;27;20436;-73
2021/12/02 11:32:50;;;;;;;12.65;6.30;;;;;;;5.92;56.19;94116.44;5133776;27;20031;-72
2021/12/02 11:35:24;;;;;;;14.30;7.97;;;;;;;5.65;62.58;94114.16;5132570;27;20504;-74
2021/12/02 11:37:55;;;;;;;11.68;7.97;;;;;;;5.38;62.41;94111.88;5132399;27;20231;-74
2021/12/02 11:40:22;;;;;;;12.55;8.55;;;;;;;5.28;62.52;94106.56;5115401;27;20061;-75